sensor_id;sensor_type;location;lat;lon;timestamp;P1;durP1;ratioP1;P2;durP2;ratioP2
20945;SDS011;10632;51.276;7.116;2023-07-13T00:02:06;1.38;;;0.60;;
20945;SDS011;10632;51.276;7.116;2023-07-13T00:04:33;1.55;;;0.60;;
20945;SDS011;10632;51.276;7.116;2023-07-13T00:07:02;2.38;;;0.60;;
20945;SDS011;10632;51.276;7.116;2023-07-13T00:09:29;1.65;;;0.77;;
20945;SDS011;10632;51.276;7.116;2023-07-13T00:11:56;3.38;;;0.60;;
20945;SDS011;10632;51.276;7.116;2023-07-13T00:14:24;1.25;;;0.65;;
20945;SDS011;10632;51.276;7.116;2023-07-13T00:16:52;1.73;;;0.60;;
20945;SDS011;10632;51.276;7.116;2023-07-13T00:19:19;5.47;;;0.75;;
20945;SDS011;10632;51.276;7.116;2023-07-13T00:21:47;1.38;;;0.50;;
20945;SDS011;10632;51.276;7.116;2023-07-13T00:24:16;2.45;;;0.50;;
20945;SDS011;10632;51.276;7.116;2023-07-13T00:26:48;2.78;;;0.40;;
20945;SDS011;10632;51.276;7.116;2023-07-13T00:29:15;2.25;;;0.43;;
20945;SDS011;10632;51.276;7.116;2023-07-13T00:31:42;1.92;;;0.55;;
20945;SDS011;10632;51.276;7.116;2023-07-13T00:34:12;1.60;;;0.50;;
20945;SDS011;10632;51.276;7.116;2023-07-13T00:36:39;1.60;;;0.50;;
20945;SDS011;10632;51.276;7.116;2023-07-13T00:39:06;1.90;;;0.60;;
20945;SDS011;10632;51.276;7.116;2023-07-13T00:41:35;1.88;;;0.57;;
20945;SDS011;10632;51.276;7.116;2023-07-13T00:44:02;4.72;;;0.47;;
20945;SDS011;10632;51.276;7.116;2023-07-13T00:46:30;1.98;;;0.50;;
20945;SDS011;10632;51.276;7.116;2023-07-13T00:49:01;2.47;;;0.73;;
20945;SDS011;10632;51.276;7.116;2023-07-13T00:51:32;2.03;;;0.70;;
20945;SDS011;10632;51.276;7.116;2023-07-13T00:54:04;5.55;;;0.50;;
20945;SDS011;10632;51.276;7.116;2023-07-13T00:56:34;3.80;;;0.70;;
20945;SDS011;10632;51.276;7.116;2023-07-13T00:59:03;1.58;;;0.68;;
20945;SDS011;10632;51.276;7.116;2023-07-13T01:01:33;1.60;;;0.60;;
20945;SDS011;10632;51.276;7.116;2023-07-13T01:04:02;2.38;;;0.93;;
20945;SDS011;10632;51.276;7.116;2023-07-13T01:06:32;3.08;;;0.68;;
20945;SDS011;10632;51.276;7.116;2023-07-13T01:09:00;1.15;;;0.52;;
20945;SDS011;10632;51.276;7.116;2023-07-13T01:11:28;2.45;;;0.80;;
20945;SDS011;10632;51.276;7.116;2023-07-13T01:13:56;1.73;;;0.60;;
20945;SDS011;10632;51.276;7.116;2023-07-13T01:16:24;4.40;;;0.80;;
20945;SDS011;10632;51.276;7.116;2023-07-13T01:18:54;2.78;;;0.50;;
20945;SDS011;10632;51.276;7.116;2023-07-13T01:21:25;2.03;;;0.63;;
20945;SDS011;10632;51.276;7.116;2023-07-13T01:23:53;5.65;;;0.60;;
20945;SDS011;10632;51.276;7.116;2023-07-13T01:26:20;1.00;;;0.50;;
20945;SDS011;10632;51.276;7.116;2023-07-13T01:28:47;2.13;;;0.60;;
20945;SDS011;10632;51.276;7.116;2023-07-13T01:31:17;2.03;;;0.75;;
20945;SDS011;10632;51.276;7.116;2023-07-13T01:33:43;2.00;;;0.60;;
20945;SDS011;10632;51.276;7.116;2023-07-13T01:36:10;3.35;;;0.68;;
20945;SDS011;10632;51.276;7.116;2023-07-13T01:38:40;0.88;;;0.40;;
20945;SDS011;10632;51.276;7.116;2023-07-13T01:41:06;2.25;;;0.70;;
20945;SDS011;10632;51.276;7.116;2023-07-13T01:43:33;1.40;;;0.57;;
20945;SDS011;10632;51.276;7.116;2023-07-13T01:46:00;1.63;;;0.60;;
20945;SDS011;10632;51.276;7.116;2023-07-13T01:48:27;1.98;;;0.47;;
20945;SDS011;10632;51.276;7.116;2023-07-13T01:50:54;1.27;;;0.57;;
20945;SDS011;10632;51.276;7.116;2023-07-13T01:53:21;1.08;;;0.50;;
20945;SDS011;10632;51.276;7.116;2023-07-13T01:55:51;1.27;;;0.55;;
20945;SDS011;10632;51.276;7.116;2023-07-13T01:58:19;1.30;;;0.50;;
20945;SDS011;10632;51.276;7.116;2023-07-13T02:00:47;2.35;;;0.60;;
20945;SDS011;10632;51.276;7.116;2023-07-13T02:03:15;1.25;;;0.70;;
20945;SDS011;10632;51.276;7.116;2023-07-13T02:05:43;3.08;;;0.40;;
20945;SDS011;10632;51.276;7.116;2023-07-13T02:08:10;2.53;;;0.60;;
20945;SDS011;10632;51.276;7.116;2023-07-13T02:10:37;3.05;;;0.52;;
20945;SDS011;10632;51.276;7.116;2023-07-13T02:13:06;2.05;;;0.50;;
20945;SDS011;10632;51.276;7.116;2023-07-13T02:15:33;2.42;;;0.65;;
20945;SDS011;10632;51.276;7.116;2023-07-13T02:18:00;3.00;;;0.50;;
20945;SDS011;10632;51.276;7.116;2023-07-13T02:20:28;4.80;;;0.80;;
20945;SDS011;10632;51.276;7.116;2023-07-13T02:22:55;3.97;;;0.60;;
20945;SDS011;10632;51.276;7.116;2023-07-13T02:25:22;3.20;;;0.80;;
20945;SDS011;10632;51.276;7.116;2023-07-13T02:27:50;3.25;;;0.80;;
20945;SDS011;10632;51.276;7.116;2023-07-13T02:30:18;1.23;;;0.50;;
20945;SDS011;10632;51.276;7.116;2023-07-13T02:32:45;3.55;;;0.63;;
20945;SDS011;10632;51.276;7.116;2023-07-13T02:35:12;0.77;;;0.30;;
20945;SDS011;10632;51.276;7.116;2023-07-13T02:37:39;2.45;;;0.50;;
20945;SDS011;10632;51.276;7.116;2023-07-13T02:40:10;5.53;;;0.70;;
20945;SDS011;10632;51.276;7.116;2023-07-13T02:42:37;1.10;;;0.43;;
20945;SDS011;10632;51.276;7.116;2023-07-13T02:45:04;3.72;;;0.50;;
20945;SDS011;10632;51.276;7.116;2023-07-13T02:47:34;1.85;;;0.47;;
20945;SDS011;10632;51.276;7.116;2023-07-13T02:50:00;1.98;;;0.70;;
20945;SDS011;10632;51.276;7.116;2023-07-13T02:52:28;1.50;;;0.55;;
20945;SDS011;10632;51.276;7.116;2023-07-13T02:54:55;0.95;;;0.40;;
20945;SDS011;10632;51.276;7.116;2023-07-13T02:57:21;1.42;;;0.40;;
20945;SDS011;10632;51.276;7.116;2023-07-13T02:59:48;3.20;;;0.98;;
20945;SDS011;10632;51.276;7.116;2023-07-13T03:02:15;1.65;;;0.60;;
20945;SDS011;10632;51.276;7.116;2023-07-13T03:04:44;1.17;;;0.50;;
20945;SDS011;10632;51.276;7.116;2023-07-13T03:07:11;4.82;;;0.60;;
20945;SDS011;10632;51.276;7.116;2023-07-13T03:09:39;2.65;;;0.70;;
20945;SDS011;10632;51.276;7.116;2023-07-13T03:12:06;3.20;;;0.68;;
20945;SDS011;10632;51.276;7.116;2023-07-13T03:14:34;1.27;;;0.38;;
20945;SDS011;10632;51.276;7.116;2023-07-13T03:17:04;2.80;;;0.52;;
20945;SDS011;10632;51.276;7.116;2023-07-13T03:19:32;1.55;;;0.50;;
20945;SDS011;10632;51.276;7.116;2023-07-13T03:22:00;2.75;;;0.65;;
20945;SDS011;10632;51.276;7.116;2023-07-13T03:24:27;6.25;;;0.75;;
20945;SDS011;10632;51.276;7.116;2023-07-13T03:26:54;2.90;;;0.60;;
20945;SDS011;10632;51.276;7.116;2023-07-13T03:29:20;1.75;;;0.50;;
20945;SDS011;10632;51.276;7.116;2023-07-13T03:31:47;2.25;;;0.63;;
20945;SDS011;10632;51.276;7.116;2023-07-13T03:34:14;2.60;;;0.75;;
20945;SDS011;10632;51.276;7.116;2023-07-13T03:36:42;1.83;;;0.80;;
20945;SDS011;10632;51.276;7.116;2023-07-13T03:39:10;3.45;;;0.70;;
20945;SDS011;10632;51.276;7.116;2023-07-13T03:41:37;1.85;;;0.60;;
20945;SDS011;10632;51.276;7.116;2023-07-13T03:44:04;2.78;;;0.63;;
20945;SDS011;10632;51.276;7.116;2023-07-13T03:46:31;1.65;;;0.70;;
20945;SDS011;10632;51.276;7.116;2023-07-13T03:49:00;2.25;;;0.65;;
20945;SDS011;10632;51.276;7.116;2023-07-13T03:51:28;2.20;;;0.60;;
20945;SDS011;10632;51.276;7.116;2023-07-13T03:53:55;1.75;;;0.85;;
20945;SDS011;10632;51.276;7.116;2023-07-13T03:56:23;3.25;;;1.08;;
20945;SDS011;10632;51.276;7.116;2023-07-13T03:58:50;3.40;;;0.60;;
20945;SDS011;10632;51.276;7.116;2023-07-13T04:01:19;1.65;;;0.60;;
20945;SDS011;10632;51.276;7.116;2023-07-13T04:03:47;2.95;;;0.57;;
20945;SDS011;10632;51.276;7.116;2023-07-13T04:06:16;4.60;;;0.70;;
20945;SDS011;10632;51.276;7.116;2023-07-13T04:08:46;2.42;;;0.80;;
20945;SDS011;10632;51.276;7.116;2023-07-13T04:11:16;1.73;;;0.60;;
20945;SDS011;10632;51.276;7.116;2023-07-13T04:13:45;1.42;;;0.55;;
20945;SDS011;10632;51.276;7.116;2023-07-13T04:16:12;3.13;;;0.70;;
20945;SDS011;10632;51.276;7.116;2023-07-13T04:18:40;2.35;;;0.63;;
20945;SDS011;10632;51.276;7.116;2023-07-13T04:21:07;2.53;;;0.60;;
20945;SDS011;10632;51.276;7.116;2023-07-13T04:23:34;2.13;;;0.80;;
20945;SDS011;10632;51.276;7.116;2023-07-13T04:26:02;4.15;;;0.75;;
20945;SDS011;10632;51.276;7.116;2023-07-13T04:28:29;3.83;;;0.57;;
20945;SDS011;10632;51.276;7.116;2023-07-13T04:30:58;3.05;;;0.60;;
20945;SDS011;10632;51.276;7.116;2023-07-13T04:33:26;1.92;;;0.60;;
20945;SDS011;10632;51.276;7.116;2023-07-13T04:35:54;5.05;;;0.95;;
20945;SDS011;10632;51.276;7.116;2023-07-13T04:38:22;4.45;;;1.15;;
20945;SDS011;10632;51.276;7.116;2023-07-13T04:40:52;1.58;;;0.60;;
20945;SDS011;10632;51.276;7.116;2023-07-13T04:43:21;2.80;;;0.70;;
20945;SDS011;10632;51.276;7.116;2023-07-13T04:45:48;4.25;;;0.70;;
20945;SDS011;10632;51.276;7.116;2023-07-13T04:48:17;1.85;;;0.50;;
20945;SDS011;10632;51.276;7.116;2023-07-13T04:50:44;2.53;;;0.55;;
20945;SDS011;10632;51.276;7.116;2023-07-13T04:53:12;2.80;;;0.60;;
20945;SDS011;10632;51.276;7.116;2023-07-13T04:55:39;1.38;;;0.60;;
20945;SDS011;10632;51.276;7.116;2023-07-13T04:58:06;4.53;;;0.70;;
20945;SDS011;10632;51.276;7.116;2023-07-13T05:00:33;1.90;;;0.60;;
20945;SDS011;10632;51.276;7.116;2023-07-13T05:02:59;4.05;;;0.95;;
20945;SDS011;10632;51.276;7.116;2023-07-13T05:05:28;4.13;;;0.70;;
20945;SDS011;10632;51.276;7.116;2023-07-13T05:07:55;0.77;;;0.43;;
20945;SDS011;10632;51.276;7.116;2023-07-13T05:10:22;3.15;;;0.90;;
20945;SDS011;10632;51.276;7.116;2023-07-13T05:12:49;1.65;;;0.57;;
20945;SDS011;10632;51.276;7.116;2023-07-13T05:15:16;3.65;;;0.90;;
20945;SDS011;10632;51.276;7.116;2023-07-13T05:17:46;5.82;;;1.02;;
20945;SDS011;10632;51.276;7.116;2023-07-13T05:20:13;3.33;;;0.80;;
20945;SDS011;10632;51.276;7.116;2023-07-13T05:22:41;2.60;;;0.77;;
20945;SDS011;10632;51.276;7.116;2023-07-13T05:25:08;5.32;;;0.93;;
20945;SDS011;10632;51.276;7.116;2023-07-13T05:27:37;4.32;;;0.82;;
20945;SDS011;10632;51.276;7.116;2023-07-13T05:30:05;3.72;;;0.75;;
20945;SDS011;10632;51.276;7.116;2023-07-13T05:32:37;5.28;;;0.90;;
20945;SDS011;10632;51.276;7.116;2023-07-13T05:35:04;3.90;;;0.55;;
20945;SDS011;10632;51.276;7.116;2023-07-13T05:37:31;2.08;;;0.85;;
20945;SDS011;10632;51.276;7.116;2023-07-13T05:40:01;3.63;;;0.77;;
20945;SDS011;10632;51.276;7.116;2023-07-13T05:42:29;4.18;;;0.60;;
20945;SDS011;10632;51.276;7.116;2023-07-13T05:44:56;4.93;;;0.98;;
20945;SDS011;10632;51.276;7.116;2023-07-13T05:47:23;2.78;;;0.75;;
20945;SDS011;10632;51.276;7.116;2023-07-13T05:49:50;2.35;;;0.70;;
20945;SDS011;10632;51.276;7.116;2023-07-13T05:52:17;2.28;;;0.75;;
20945;SDS011;10632;51.276;7.116;2023-07-13T05:54:43;1.85;;;0.70;;
20945;SDS011;10632;51.276;7.116;2023-07-13T05:57:12;3.22;;;0.80;;
20945;SDS011;10632;51.276;7.116;2023-07-13T05:59:39;2.20;;;0.85;;
20945;SDS011;10632;51.276;7.116;2023-07-13T06:02:07;3.63;;;0.95;;
20945;SDS011;10632;51.276;7.116;2023-07-13T06:04:35;2.65;;;0.82;;
20945;SDS011;10632;51.276;7.116;2023-07-13T06:07:02;2.63;;;0.70;;
20945;SDS011;10632;51.276;7.116;2023-07-13T06:09:29;5.88;;;0.68;;
20945;SDS011;10632;51.276;7.116;2023-07-13T06:11:56;3.05;;;0.90;;
20945;SDS011;10632;51.276;7.116;2023-07-13T06:14:26;3.95;;;0.70;;
20945;SDS011;10632;51.276;7.116;2023-07-13T06:16:53;4.53;;;0.93;;
20945;SDS011;10632;51.276;7.116;2023-07-13T06:19:20;1.80;;;0.73;;
20945;SDS011;10632;51.276;7.116;2023-07-13T06:21:47;3.22;;;0.70;;
20945;SDS011;10632;51.276;7.116;2023-07-13T06:24:14;3.17;;;0.80;;
20945;SDS011;10632;51.276;7.116;2023-07-13T06:26:41;2.88;;;0.75;;
20945;SDS011;10632;51.276;7.116;2023-07-13T06:29:07;2.13;;;1.00;;
20945;SDS011;10632;51.276;7.116;2023-07-13T06:31:36;4.53;;;1.00;;
20945;SDS011;10632;51.276;7.116;2023-07-13T06:34:03;2.38;;;0.90;;
20945;SDS011;10632;51.276;7.116;2023-07-13T06:36:30;4.00;;;1.02;;
20945;SDS011;10632;51.276;7.116;2023-07-13T06:38:56;4.18;;;1.05;;
20945;SDS011;10632;51.276;7.116;2023-07-13T06:41:23;4.53;;;1.02;;
20945;SDS011;10632;51.276;7.116;2023-07-13T06:43:51;3.00;;;1.15;;
20945;SDS011;10632;51.276;7.116;2023-07-13T06:46:19;5.70;;;1.23;;
20945;SDS011;10632;51.276;7.116;2023-07-13T06:48:48;4.32;;;1.10;;
20945;SDS011;10632;51.276;7.116;2023-07-13T06:51:15;7.25;;;1.27;;
20945;SDS011;10632;51.276;7.116;2023-07-13T06:53:45;7.68;;;1.50;;
20945;SDS011;10632;51.276;7.116;2023-07-13T06:56:12;6.43;;;1.25;;
20945;SDS011;10632;51.276;7.116;2023-07-13T06:58:39;8.02;;;1.92;;
20945;SDS011;10632;51.276;7.116;2023-07-13T07:01:06;7.25;;;1.48;;
20945;SDS011;10632;51.276;7.116;2023-07-13T07:03:33;4.75;;;1.52;;
20945;SDS011;10632;51.276;7.116;2023-07-13T07:06:02;4.40;;;1.60;;
20945;SDS011;10632;51.276;7.116;2023-07-13T07:08:42;6.35;;;1.77;;
20945;SDS011;10632;51.276;7.116;2023-07-13T07:11:11;7.30;;;1.80;;
20945;SDS011;10632;51.276;7.116;2023-07-13T07:13:40;5.05;;;2.10;;
20945;SDS011;10632;51.276;7.116;2023-07-13T07:16:07;8.93;;;1.83;;
20945;SDS011;10632;51.276;7.116;2023-07-13T07:18:34;10.52;;;1.67;;
20945;SDS011;10632;51.276;7.116;2023-07-13T07:21:02;3.72;;;1.30;;
20945;SDS011;10632;51.276;7.116;2023-07-13T07:23:29;10.40;;;1.80;;
20945;SDS011;10632;51.276;7.116;2023-07-13T07:25:56;6.68;;;1.73;;
20945;SDS011;10632;51.276;7.116;2023-07-13T07:28:23;6.32;;;1.92;;
20945;SDS011;10632;51.276;7.116;2023-07-13T07:30:53;4.18;;;1.75;;
20945;SDS011;10632;51.276;7.116;2023-07-13T07:33:21;5.75;;;1.42;;
20945;SDS011;10632;51.276;7.116;2023-07-13T07:35:48;3.20;;;1.35;;
20945;SDS011;10632;51.276;7.116;2023-07-13T07:38:17;6.38;;;1.88;;
20945;SDS011;10632;51.276;7.116;2023-07-13T07:40:44;4.72;;;1.67;;
20945;SDS011;10632;51.276;7.116;2023-07-13T07:43:10;2.72;;;1.25;;
20945;SDS011;10632;51.276;7.116;2023-07-13T07:45:38;3.15;;;1.35;;
20945;SDS011;10632;51.276;7.116;2023-07-13T07:48:06;5.15;;;1.65;;
20945;SDS011;10632;51.276;7.116;2023-07-13T07:50:35;4.35;;;1.27;;
20945;SDS011;10632;51.276;7.116;2023-07-13T07:53:04;3.75;;;1.40;;
20945;SDS011;10632;51.276;7.116;2023-07-13T07:55:34;3.13;;;1.45;;
20945;SDS011;10632;51.276;7.116;2023-07-13T07:58:01;5.63;;;1.67;;
20945;SDS011;10632;51.276;7.116;2023-07-13T08:00:30;4.78;;;1.67;;
20945;SDS011;10632;51.276;7.116;2023-07-13T08:02:57;6.22;;;2.35;;
20945;SDS011;10632;51.276;7.116;2023-07-13T08:05:29;5.07;;;1.80;;
20945;SDS011;10632;51.276;7.116;2023-07-13T08:07:56;3.95;;;1.70;;
20945;SDS011;10632;51.276;7.116;2023-07-13T08:10:23;8.95;;;2.30;;
20945;SDS011;10632;51.276;7.116;2023-07-13T08:12:51;5.10;;;1.80;;
20945;SDS011;10632;51.276;7.116;2023-07-13T08:15:18;10.43;;;1.92;;
20945;SDS011;10632;51.276;7.116;2023-07-13T08:17:46;6.10;;;1.90;;
20945;SDS011;10632;51.276;7.116;2023-07-13T08:20:15;4.32;;;2.00;;
20945;SDS011;10632;51.276;7.116;2023-07-13T08:22:42;5.07;;;2.45;;
20945;SDS011;10632;51.276;7.116;2023-07-13T08:25:09;5.22;;;2.10;;
20945;SDS011;10632;51.276;7.116;2023-07-13T08:27:36;8.02;;;2.20;;
20945;SDS011;10632;51.276;7.116;2023-07-13T08:30:05;9.02;;;2.33;;
20945;SDS011;10632;51.276;7.116;2023-07-13T08:32:33;9.43;;;2.60;;
20945;SDS011;10632;51.276;7.116;2023-07-13T08:35:00;7.88;;;2.10;;
20945;SDS011;10632;51.276;7.116;2023-07-13T08:37:27;10.38;;;2.08;;
20945;SDS011;10632;51.276;7.116;2023-07-13T08:39:53;9.10;;;2.40;;
20945;SDS011;10632;51.276;7.116;2023-07-13T08:42:24;7.18;;;2.30;;
20945;SDS011;10632;51.276;7.116;2023-07-13T08:45:01;7.50;;;2.33;;
20945;SDS011;10632;51.276;7.116;2023-07-13T08:47:36;14.52;;;2.30;;
20945;SDS011;10632;51.276;7.116;2023-07-13T08:50:09;5.68;;;2.40;;
20945;SDS011;10632;51.276;7.116;2023-07-13T08:52:39;7.45;;;2.13;;
20945;SDS011;10632;51.276;7.116;2023-07-13T08:55:11;5.90;;;1.92;;
20945;SDS011;10632;51.276;7.116;2023-07-13T08:57:41;7.68;;;1.75;;
20945;SDS011;10632;51.276;7.116;2023-07-13T09:00:12;8.98;;;2.30;;
20945;SDS011;10632;51.276;7.116;2023-07-13T09:02:42;3.60;;;1.70;;
20945;SDS011;10632;51.276;7.116;2023-07-13T09:05:13;5.53;;;2.05;;
20945;SDS011;10632;51.276;7.116;2023-07-13T09:07:46;6.32;;;1.95;;
20945;SDS011;10632;51.276;7.116;2023-07-13T09:10:26;5.40;;;2.00;;
20945;SDS011;10632;51.276;7.116;2023-07-13T09:12:57;3.05;;;1.48;;
20945;SDS011;10632;51.276;7.116;2023-07-13T09:15:36;4.28;;;1.63;;
20945;SDS011;10632;51.276;7.116;2023-07-13T09:18:10;4.68;;;1.90;;
20945;SDS011;10632;51.276;7.116;2023-07-13T09:20:41;5.93;;;1.98;;
20945;SDS011;10632;51.276;7.116;2023-07-13T09:23:14;4.63;;;1.80;;
20945;SDS011;10632;51.276;7.116;2023-07-13T09:25:43;10.70;;;2.10;;
20945;SDS011;10632;51.276;7.116;2023-07-13T09:28:17;5.43;;;1.48;;
20945;SDS011;10632;51.276;7.116;2023-07-13T09:30:51;3.63;;;1.70;;
20945;SDS011;10632;51.276;7.116;2023-07-13T09:33:22;5.32;;;1.52;;
20945;SDS011;10632;51.276;7.116;2023-07-13T09:35:50;4.65;;;1.40;;
20945;SDS011;10632;51.276;7.116;2023-07-13T09:38:17;7.80;;;1.80;;
20945;SDS011;10632;51.276;7.116;2023-07-13T09:40:59;5.95;;;1.40;;
20945;SDS011;10632;51.276;7.116;2023-07-13T09:43:34;5.22;;;1.50;;
20945;SDS011;10632;51.276;7.116;2023-07-13T09:46:02;5.63;;;1.60;;
20945;SDS011;10632;51.276;7.116;2023-07-13T09:48:33;4.18;;;1.20;;
20945;SDS011;10632;51.276;7.116;2023-07-13T09:51:04;2.83;;;1.30;;
20945;SDS011;10632;51.276;7.116;2023-07-13T09:53:39;6.85;;;1.63;;
20945;SDS011;10632;51.276;7.116;2023-07-13T09:56:11;2.72;;;1.33;;
20945;SDS011;10632;51.276;7.116;2023-07-13T09:58:46;6.57;;;1.60;;
20945;SDS011;10632;51.276;7.116;2023-07-13T10:01:17;4.90;;;1.40;;
20945;SDS011;10632;51.276;7.116;2023-07-13T10:03:58;5.05;;;1.30;;
20945;SDS011;10632;51.276;7.116;2023-07-13T10:06:25;3.90;;;1.40;;
20945;SDS011;10632;51.276;7.116;2023-07-13T10:08:52;4.63;;;1.33;;
20945;SDS011;10632;51.276;7.116;2023-07-13T10:11:22;4.82;;;1.58;;
20945;SDS011;10632;51.276;7.116;2023-07-13T10:13:54;3.97;;;1.30;;
20945;SDS011;10632;51.276;7.116;2023-07-13T10:16:25;5.40;;;1.50;;
20945;SDS011;10632;51.276;7.116;2023-07-13T10:18:58;4.05;;;1.60;;
20945;SDS011;10632;51.276;7.116;2023-07-13T10:21:27;4.05;;;1.13;;
20945;SDS011;10632;51.276;7.116;2023-07-13T10:24:02;3.25;;;1.33;;
20945;SDS011;10632;51.276;7.116;2023-07-13T10:26:36;2.80;;;1.15;;
20945;SDS011;10632;51.276;7.116;2023-07-13T10:29:12;2.75;;;1.08;;
20945;SDS011;10632;51.276;7.116;2023-07-13T10:31:44;5.13;;;1.13;;
20945;SDS011;10632;51.276;7.116;2023-07-13T10:34:11;3.85;;;1.05;;
20945;SDS011;10632;51.276;7.116;2023-07-13T10:36:40;4.53;;;1.30;;
20945;SDS011;10632;51.276;7.116;2023-07-13T10:39:14;4.50;;;1.27;;
20945;SDS011;10632;51.276;7.116;2023-07-13T10:41:44;3.53;;;1.15;;
20945;SDS011;10632;51.276;7.116;2023-07-13T10:44:21;7.10;;;0.90;;
20945;SDS011;10632;51.276;7.116;2023-07-13T10:46:52;3.30;;;1.27;;
20945;SDS011;10632;51.276;7.116;2023-07-13T10:49:23;5.47;;;1.20;;
20945;SDS011;10632;51.276;7.116;2023-07-13T10:51:53;3.50;;;1.20;;
20945;SDS011;10632;51.276;7.116;2023-07-13T10:54:20;4.18;;;1.30;;
20945;SDS011;10632;51.276;7.116;2023-07-13T10:56:53;4.82;;;1.20;;
20945;SDS011;10632;51.276;7.116;2023-07-13T10:59:41;5.95;;;1.30;;
20945;SDS011;10632;51.276;7.116;2023-07-13T11:02:13;2.13;;;1.00;;
20945;SDS011;10632;51.276;7.116;2023-07-13T11:04:49;2.42;;;1.15;;
20945;SDS011;10632;51.276;7.116;2023-07-13T11:07:19;5.93;;;1.25;;
20945;SDS011;10632;51.276;7.116;2023-07-13T11:09:49;3.72;;;0.95;;
20945;SDS011;10632;51.276;7.116;2023-07-13T11:15:33;1.88;;;0.85;;
20945;SDS011;10632;51.276;7.116;2023-07-13T11:18:20;3.15;;;1.02;;
20945;SDS011;10632;51.276;7.116;2023-07-13T11:20:50;3.90;;;1.20;;
20945;SDS011;10632;51.276;7.116;2023-07-13T11:29:07;5.28;;;1.20;;
20945;SDS011;10632;51.276;7.116;2023-07-13T11:31:36;2.85;;;1.20;;
20945;SDS011;10632;51.276;7.116;2023-07-13T11:34:07;3.70;;;1.20;;
20945;SDS011;10632;51.276;7.116;2023-07-13T11:36:39;2.47;;;0.93;;
20945;SDS011;10632;51.276;7.116;2023-07-13T11:39:12;3.17;;;1.00;;
20945;SDS011;10632;51.276;7.116;2023-07-13T11:41:45;3.03;;;1.20;;
20945;SDS011;10632;51.276;7.116;2023-07-13T11:44:18;1.60;;;0.88;;
20945;SDS011;10632;51.276;7.116;2023-07-13T11:46:47;4.22;;;1.00;;
20945;SDS011;10632;51.276;7.116;2023-07-13T11:49:18;4.40;;;1.20;;
20945;SDS011;10632;51.276;7.116;2023-07-13T11:51:46;2.17;;;0.80;;
20945;SDS011;10632;51.276;7.116;2023-07-13T11:54:21;6.32;;;1.10;;
20945;SDS011;10632;51.276;7.116;2023-07-13T11:56:51;7.82;;;1.05;;
20945;SDS011;10632;51.276;7.116;2023-07-13T11:59:19;3.13;;;1.33;;
20945;SDS011;10632;51.276;7.116;2023-07-13T12:01:47;3.60;;;1.10;;
20945;SDS011;10632;51.276;7.116;2023-07-13T12:04:22;2.30;;;0.90;;
20945;SDS011;10632;51.276;7.116;2023-07-13T12:06:55;2.88;;;0.85;;
20945;SDS011;10632;51.276;7.116;2023-07-13T12:09:26;2.08;;;0.90;;
20945;SDS011;10632;51.276;7.116;2023-07-13T12:11:56;3.20;;;0.85;;
20945;SDS011;10632;51.276;7.116;2023-07-13T12:14:23;3.60;;;1.00;;
20945;SDS011;10632;51.276;7.116;2023-07-13T12:16:51;4.55;;;1.10;;
20945;SDS011;10632;51.276;7.116;2023-07-13T12:19:21;3.22;;;0.80;;
20945;SDS011;10632;51.276;7.116;2023-07-13T12:21:53;2.80;;;1.00;;
20945;SDS011;10632;51.276;7.116;2023-07-13T12:24:22;3.75;;;1.00;;
20945;SDS011;10632;51.276;7.116;2023-07-13T12:26:53;3.10;;;1.00;;
20945;SDS011;10632;51.276;7.116;2023-07-13T12:29:21;3.53;;;1.10;;
20945;SDS011;10632;51.276;7.116;2023-07-13T12:31:49;7.25;;;1.10;;
20945;SDS011;10632;51.276;7.116;2023-07-13T12:34:18;2.08;;;1.00;;
20945;SDS011;10632;51.276;7.116;2023-07-13T12:36:49;3.53;;;1.00;;
20945;SDS011;10632;51.276;7.116;2023-07-13T12:39:18;5.63;;;0.90;;
20945;SDS011;10632;51.276;7.116;2023-07-13T12:41:48;3.25;;;0.90;;
20945;SDS011;10632;51.276;7.116;2023-07-13T12:44:17;4.13;;;1.00;;
20945;SDS011;10632;51.276;7.116;2023-07-13T12:46:55;3.05;;;0.90;;
20945;SDS011;10632;51.276;7.116;2023-07-13T12:49:25;3.80;;;1.10;;
20945;SDS011;10632;51.276;7.116;2023-07-13T12:51:58;4.00;;;1.00;;
20945;SDS011;10632;51.276;7.116;2023-07-13T12:54:26;4.72;;;1.30;;
20945;SDS011;10632;51.276;7.116;2023-07-13T12:56:55;3.22;;;0.90;;
20945;SDS011;10632;51.276;7.116;2023-07-13T12:59:24;3.85;;;1.05;;
20945;SDS011;10632;51.276;7.116;2023-07-13T13:01:55;3.10;;;1.10;;
20945;SDS011;10632;51.276;7.116;2023-07-13T13:04:22;3.30;;;1.05;;
20945;SDS011;10632;51.276;7.116;2023-07-13T13:06:49;5.68;;;0.93;;
20945;SDS011;10632;51.276;7.116;2023-07-13T13:09:30;4.70;;;0.88;;
20945;SDS011;10632;51.276;7.116;2023-07-13T13:11:57;3.42;;;1.00;;
20945;SDS011;10632;51.276;7.116;2023-07-13T13:14:24;2.40;;;0.90;;
20945;SDS011;10632;51.276;7.116;2023-07-13T13:16:51;4.55;;;0.90;;
20945;SDS011;10632;51.276;7.116;2023-07-13T13:19:20;4.40;;;1.08;;
20945;SDS011;10632;51.276;7.116;2023-07-13T13:21:49;7.00;;;1.00;;
20945;SDS011;10632;51.276;7.116;2023-07-13T13:24:19;2.72;;;0.77;;
20945;SDS011;10632;51.276;7.116;2023-07-13T13:26:48;3.40;;;0.73;;
20945;SDS011;10632;51.276;7.116;2023-07-13T13:29:16;2.92;;;0.95;;
20945;SDS011;10632;51.276;7.116;2023-07-13T13:31:46;1.75;;;0.65;;
20945;SDS011;10632;51.276;7.116;2023-07-13T13:34:14;2.35;;;1.00;;
20945;SDS011;10632;51.276;7.116;2023-07-13T13:36:42;7.07;;;0.90;;
20945;SDS011;10632;51.276;7.116;2023-07-13T13:39:16;2.80;;;0.80;;
20945;SDS011;10632;51.276;7.116;2023-07-13T13:41:48;3.17;;;0.77;;
20945;SDS011;10632;51.276;7.116;2023-07-13T13:44:15;1.88;;;0.82;;
20945;SDS011;10632;51.276;7.116;2023-07-13T13:46:47;4.13;;;0.90;;
20945;SDS011;10632;51.276;7.116;2023-07-13T13:49:17;4.07;;;1.00;;
20945;SDS011;10632;51.276;7.116;2023-07-13T13:51:48;3.00;;;0.80;;
20945;SDS011;10632;51.276;7.116;2023-07-13T13:54:16;4.70;;;1.00;;
20945;SDS011;10632;51.276;7.116;2023-07-13T13:56:46;2.08;;;0.82;;
20945;SDS011;10632;51.276;7.116;2023-07-13T13:59:13;2.78;;;0.90;;
20945;SDS011;10632;51.276;7.116;2023-07-13T14:01:40;3.08;;;1.08;;
20945;SDS011;10632;51.276;7.116;2023-07-13T14:04:09;2.38;;;1.00;;
20945;SDS011;10632;51.276;7.116;2023-07-13T14:06:42;4.88;;;0.60;;
20945;SDS011;10632;51.276;7.116;2023-07-13T14:09:10;3.50;;;1.00;;
20945;SDS011;10632;51.276;7.116;2023-07-13T14:11:39;2.63;;;0.90;;
20945;SDS011;10632;51.276;7.116;2023-07-13T14:14:12;4.20;;;1.00;;
20945;SDS011;10632;51.276;7.116;2023-07-13T14:16:43;5.20;;;0.90;;
20945;SDS011;10632;51.276;7.116;2023-07-13T14:19:12;2.45;;;0.73;;
20945;SDS011;10632;51.276;7.116;2023-07-13T14:21:40;12.15;;;0.98;;
20945;SDS011;10632;51.276;7.116;2023-07-13T14:24:08;1.60;;;0.70;;
20945;SDS011;10632;51.276;7.116;2023-07-13T14:26:36;5.10;;;0.90;;
20945;SDS011;10632;51.276;7.116;2023-07-13T14:29:10;1.77;;;0.90;;
20945;SDS011;10632;51.276;7.116;2023-07-13T14:31:41;2.88;;;1.10;;
20945;SDS011;10632;51.276;7.116;2023-07-13T14:34:09;2.47;;;0.77;;
20945;SDS011;10632;51.276;7.116;2023-07-13T14:36:38;4.80;;;0.85;;
20945;SDS011;10632;51.276;7.116;2023-07-13T14:39:10;2.47;;;0.93;;
20945;SDS011;10632;51.276;7.116;2023-07-13T14:41:38;1.92;;;1.02;;
20945;SDS011;10632;51.276;7.116;2023-07-13T14:44:08;4.15;;;0.80;;
20945;SDS011;10632;51.276;7.116;2023-07-13T14:46:39;4.50;;;0.98;;
20945;SDS011;10632;51.276;7.116;2023-07-13T14:49:10;3.35;;;1.00;;
20945;SDS011;10632;51.276;7.116;2023-07-13T14:51:41;2.92;;;0.75;;
20945;SDS011;10632;51.276;7.116;2023-07-13T14:54:08;5.18;;;1.02;;
20945;SDS011;10632;51.276;7.116;2023-07-13T14:56:36;2.53;;;0.80;;
20945;SDS011;10632;51.276;7.116;2023-07-13T14:59:03;2.88;;;0.80;;
20945;SDS011;10632;51.276;7.116;2023-07-13T15:01:33;3.35;;;0.90;;
20945;SDS011;10632;51.276;7.116;2023-07-13T15:04:01;1.83;;;0.90;;
20945;SDS011;10632;51.276;7.116;2023-07-13T15:06:29;2.55;;;1.00;;
20945;SDS011;10632;51.276;7.116;2023-07-13T15:08:57;3.30;;;1.00;;